Time;durP1;ratioP1;P1;durP2;ratioP2;P2;SDS_P1;SDS_P2;PMS_P1;PMS_P2;Temp;Humidity;BMP_temperature;BMP_pressure;BME280_temperature;BME280_humidity;BME280_pressure;Samples;Min_cycle;Max_cycle;Signal;HPM_P1;HPM_P2
2023/03/27 00:00:45;;;;;;;1.17;0.47;;;5.00;99.90;;;;;;5091753;28;20473;-68
2023/03/27 00:03:13;;;;;;;1.30;0.50;;;5.00;99.90;;;;;;5091448;28;20423;-69
2023/03/27 00:05:39;;;;;;;1.00;0.40;;;5.00;99.90;;;;;;5092324;28;20510;-68
2023/03/27 00:08:08;;;;;;;1.17;0.53;;;4.90;99.90;;;;;;5091895;28;20510;-68
2023/03/27 00:10:34;;;;;;;1.83;0.50;;;5.10;99.90;;;;;;5092359;28;20460;-68
2023/03/27 00:13:02;;;;;;;1.10;0.50;;;4.90;99.90;;;;;;5090475;28;20457;-69
2023/03/27 00:15:29;;;;;;;1.10;0.50;;;4.90;99.90;;;;;;5091592;28;20769;-69
2023/03/27 00:17:57;;;;;;;1.10;0.50;;;4.90;99.90;;;;;;5091547;28;20816;-68
2023/03/27 00:20:25;;;;;;;1.37;0.60;;;5.00;99.90;;;;;;5091561;28;20449;-69
2023/03/27 00:22:55;;;;;;;1.67;0.67;;;5.00;99.90;;;;;;5089704;28;20445;-69
2023/03/27 00:25:22;;;;;;;1.17;0.53;;;5.00;99.90;;;;;;5091499;28;20415;-68
2023/03/27 00:27:48;;;;;;;1.00;0.40;;;4.90;99.90;;;;;;5090686;28;20422;-69
2023/03/27 00:30:14;;;;;;;1.10;0.60;;;4.90;99.90;;;;;;5091336;28;20425;-69
2023/03/27 00:32:40;;;;;;;1.10;0.50;;;4.80;99.90;;;;;;5090757;28;20196;-68
2023/03/27 00:35:08;;;;;;;1.30;0.50;;;4.80;99.90;;;;;;5091363;28;20168;-68
2023/03/27 00:37:34;;;;;;;1.10;0.50;;;4.80;99.90;;;;;;5073291;28;20743;-68
2023/03/27 00:40:00;;;;;;;1.00;0.40;;;4.80;99.90;;;;;;5091767;28;20422;-68
2023/03/27 00:42:26;;;;;;;1.00;0.40;;;4.80;99.90;;;;;;5091309;28;20471;-68
2023/03/27 00:44:52;;;;;;;1.07;0.47;;;4.80;99.90;;;;;;5091347;28;20417;-68
2023/03/27 00:47:31;;;;;;;1.00;0.40;;;4.80;99.90;;;;;;5093639;28;20194;-69
2023/03/27 00:50:00;;;;;;;1.13;0.50;;;4.80;99.90;;;;;;5092340;28;20414;-68
2023/03/27 00:52:28;;;;;;;1.20;0.60;;;4.70;99.90;;;;;;5090084;28;21076;-68
2023/03/27 00:54:55;;;;;;;1.30;0.67;;;4.60;99.90;;;;;;5091734;28;20765;-68
2023/03/27 00:57:22;;;;;;;1.50;0.70;;;4.60;99.90;;;;;;5091724;28;20433;-68
2023/03/27 00:59:50;;;;;;;3.10;0.97;;;4.60;99.90;;;;;;5090294;28;20430;-68
2023/03/27 01:02:17;;;;;;;1.87;1.27;;;4.60;99.90;;;;;;5089745;28;20422;-68
2023/03/27 01:04:44;;;;;;;2.03;1.10;;;4.50;99.90;;;;;;5089239;28;20423;-68
2023/03/27 01:07:10;;;;;;;2.30;1.23;;;4.50;99.90;;;;;;5090625;28;20769;-68
2023/03/27 01:09:36;;;;;;;4.13;1.30;;;4.50;99.90;;;;;;5090686;28;20498;-68
2023/03/27 01:12:19;;;;;;;1.70;1.03;;;4.50;99.90;;;;;;5089925;28;20507;-68
2023/03/27 01:15:04;;;;;;;2.00;1.00;;;4.50;99.90;;;;;;5086156;28;20422;-68
2023/03/27 01:17:29;;;;;;;2.13;1.20;;;4.50;99.90;;;;;;5085275;28;20403;-68
2023/03/27 01:20:34;;;;;;;2.30;1.47;;;4.60;99.90;;;;;;5091047;28;20427;-68
2023/03/27 01:23:33;;;;;;;2.00;1.13;;;4.50;99.90;;;;;;5089939;28;20208;-68
2023/03/27 01:26:26;;;;;;;1.40;0.80;;;4.40;99.90;;;;;;5091082;28;20816;-68
2023/03/27 01:29:20;;;;;;;2.50;0.80;;;4.40;99.90;;;;;;5085121;28;20427;-68
2023/03/27 01:32:20;;;;;;;2.27;1.13;;;4.40;99.90;;;;;;5085337;28;20847;-68
2023/03/27 01:34:49;;;;;;;1.80;1.23;;;4.30;99.90;;;;;;5085904;28;20494;-67
2023/03/27 01:37:49;;;;;;;1.40;0.80;;;4.30;99.90;;;;;;5091334;28;20410;-68
2023/03/27 01:40:19;;;;;;;2.90;1.30;;;4.30;99.90;;;;;;5091527;28;20414;-68
2023/03/27 01:43:13;;;;;;;3.73;0.90;;;4.30;99.90;;;;;;5106755;22;20532;-68
2023/03/27 01:45:48;;;;;;;2.50;1.30;;;4.30;99.90;;;;;;5089772;28;20432;-68
2023/03/27 01:48:35;;;;;;;3.50;1.80;;;4.30;99.90;;;;;;5089473;28;20409;-68
2023/03/27 01:51:07;;;;;;;2.27;1.40;;;4.20;99.90;;;;;;5087632;28;20501;-68
2023/03/27 01:53:48;;;;;;;10.70;1.80;;;4.20;99.90;;;;;;5090558;28;20454;-68
2023/03/27 01:56:31;;;;;;;2.33;1.77;;;4.20;99.90;;;;;;5090760;28;20417;-68
2023/03/27 01:59:08;;;;;;;3.10;1.80;;;4.20;99.90;;;;;;5090598;28;20479;-68
2023/03/27 02:01:38;;;;;;;3.60;1.70;;;4.10;99.90;;;;;;5088598;28;20410;-68
2023/03/27 02:04:08;;;;;;;3.80;2.13;;;3.90;99.90;;;;;;5090976;28;20421;-68
2023/03/27 02:06:42;;;;;;;6.73;3.33;;;3.90;99.90;;;;;;5090745;28;20495;-68
2023/03/27 02:09:20;;;;;;;3.07;2.27;;;3.80;99.90;;;;;;5090548;28;20451;-67
2023/03/27 02:11:53;;;;;;;5.83;2.37;;;3.70;99.90;;;;;;5090208;28;20456;-68
2023/03/27 02:14:31;;;;;;;3.50;2.10;;;3.80;99.90;;;;;;5090111;28;21582;-68
2023/03/27 02:17:01;;;;;;;5.60;2.50;;;3.80;99.90;;;;;;5094701;28;20487;-68
2023/03/27 02:19:35;;;;;;;11.03;3.23;;;3.70;99.90;;;;;;5093797;28;20425;-68
2023/03/27 02:22:02;;;;;;;8.80;3.73;;;3.60;99.90;;;;;;5094349;28;20525;-68
2023/03/27 02:24:28;;;;;;;8.37;3.50;;;3.60;99.90;;;;;;5094753;28;20425;-68
2023/03/27 02:27:11;;;;;;;4.47;2.70;;;3.60;99.90;;;;;;5094339;28;20418;-68
2023/03/27 02:29:37;;;;;;;8.63;4.00;;;3.50;99.90;;;;;;5093277;28;20464;-68
2023/03/27 02:32:32;;;;;;;8.67;4.90;;;3.60;99.90;;;;;;5094107;28;20446;-68
2023/03/27 02:35:43;;;;;;;10.97;5.33;;;3.50;99.90;;;;;;5081349;28;20216;-68
2023/03/27 02:38:16;;;;;;;9.87;5.10;;;3.50;99.90;;;;;;5079095;28;20842;-68
2023/03/27 02:41:19;;;;;;;10.07;4.30;;;3.50;99.90;;;;;;5091470;28;20421;-68
2023/03/27 02:44:16;;;;;;;14.57;4.37;;;3.40;99.90;;;;;;5091761;28;20499;-68
2023/03/27 02:46:51;;;;;;;9.60;4.10;;;3.40;99.90;;;;;;5091815;28;20421;-68
2023/03/27 02:49:22;;;;;;;8.93;4.50;;;3.30;99.90;;;;;;5093832;28;20449;-68
2023/03/27 02:51:56;;;;;;;8.97;5.23;;;3.20;99.90;;;;;;5093528;28;20498;-68
2023/03/27 02:54:27;;;;;;;10.40;4.40;;;3.20;99.90;;;;;;5094101;28;20407;-68
2023/03/27 02:56:57;;;;;;;8.77;3.97;;;3.20;99.90;;;;;;5093698;28;20414;-68
2023/03/27 02:59:34;;;;;;;7.80;3.53;;;3.20;99.90;;;;;;5093551;28;20434;-68
2023/03/27 03:02:06;;;;;;;5.93;3.50;;;3.00;99.90;;;;;;5093127;28;20616;-67
2023/03/27 03:04:42;;;;;;;4.77;3.20;;;3.00;99.90;;;;;;5093664;28;20945;-68
2023/03/27 03:07:12;;;;;;;18.13;4.43;;;2.90;99.90;;;;;;5093883;28;20407;-67
2023/03/27 03:09:43;;;;;;;5.50;2.50;;;2.90;99.90;;;;;;5102295;28;20434;-67
2023/03/27 03:12:09;;;;;;;10.50;3.80;;;2.80;99.90;;;;;;5095202;28;20807;-67
2023/03/27 03:14:38;;;;;;;6.43;3.33;;;2.80;99.90;;;;;;5104565;28;20409;-67
2023/03/27 03:17:04;;;;;;;11.33;3.73;;;2.70;99.90;;;;;;5106339;28;20429;-67
2023/03/27 03:19:31;;;;;;;5.93;2.87;;;2.60;99.90;;;;;;5101190;28;20514;-68
2023/03/27 03:21:57;;;;;;;7.77;2.87;;;2.50;99.90;;;;;;5106168;28;20943;-67
2023/03/27 03:24:22;;;;;;;4.50;2.90;;;2.50;99.90;;;;;;5099428;28;20422;-68
2023/03/27 03:26:49;;;;;;;15.20;3.10;;;2.50;99.90;;;;;;5101358;28;20191;-67
2023/03/27 03:29:16;;;;;;;2.97;1.90;;;2.50;99.90;;;;;;5101381;28;20265;-67
2023/03/27 03:31:42;;;;;;;4.70;2.30;;;2.40;99.90;;;;;;5104663;28;20456;-67
2023/03/27 03:34:13;;;;;;;7.57;1.90;;;2.40;99.90;;;;;;5099776;28;20495;-68
2023/03/27 03:36:40;;;;;;;6.40;2.33;;;2.40;99.90;;;;;;5105244;28;20466;-67
2023/03/27 03:39:06;;;;;;;12.47;1.93;;;2.30;99.90;;;;;;5096870;28;20883;-67
2023/03/27 03:41:32;;;;;;;7.90;2.40;;;2.30;99.90;;;;;;5106208;28;20540;-67
2023/03/27 03:43:58;;;;;;;5.00;1.57;;;2.30;99.90;;;;;;5101238;28;20938;-67
2023/03/27 03:46:24;;;;;;;2.37;1.30;;;2.30;99.90;;;;;;5106051;28;20891;-67
2023/03/27 03:48:49;;;;;;;12.10;1.50;;;2.20;99.90;;;;;;5094500;28;20195;-67
2023/03/27 03:51:15;;;;;;;3.30;1.90;;;2.20;99.90;;;;;;5101085;28;20176;-67
2023/03/27 03:53:41;;;;;;;4.03;1.47;;;2.20;99.90;;;;;;5102660;28;20204;-67
2023/03/27 03:56:07;;;;;;;2.13;1.00;;;2.10;99.90;;;;;;5105396;28;21051;-67
2023/03/27 03:58:32;;;;;;;3.73;1.43;;;2.10;99.90;;;;;;5099922;28;20188;-67
2023/03/27 04:00:58;;;;;;;4.80;1.00;;;2.10;99.90;;;;;;5104279;28;20417;-67
2023/03/27 04:03:26;;;;;;;2.40;1.13;;;2.00;99.90;;;;;;5101158;28;20188;-68
2023/03/27 04:05:53;;;;;;;4.80;1.60;;;2.00;99.90;;;;;;5102607;28;20632;-67
2023/03/27 04:08:18;;;;;;;3.03;1.23;;;2.00;99.90;;;;;;5100797;28;20422;-68
2023/03/27 04:10:44;;;;;;;23.33;2.37;;;1.90;99.90;;;;;;5104796;28;20410;-68
2023/03/27 04:13:10;;;;;;;8.60;1.90;;;1.90;99.90;;;;;;5097331;28;20218;-68
2023/03/27 04:15:36;;;;;;;5.20;1.33;;;1.80;99.90;;;;;;5104172;28;20428;-68
2023/03/27 04:18:02;;;;;;;4.00;1.57;;;1.80;99.90;;;;;;5101575;28;20176;-68
2023/03/27 04:20:28;;;;;;;8.13;1.30;;;1.80;99.90;;;;;;5105722;28;20176;-68
2023/03/27 04:22:54;;;;;;;4.73;1.57;;;1.80;99.90;;;;;;5101523;28;20469;-68
2023/03/27 04:25:23;;;;;;;2.43;1.03;;;1.70;99.90;;;;;;5101947;28;20171;-68
2023/03/27 04:27:52;;;;;;;3.00;1.10;;;1.70;99.90;;;;;;5096139;28;20430;-68
2023/03/27 04:30:23;;;;;;;4.60;1.27;;;1.70;99.90;;;;;;5085063;28;20434;-68
2023/03/27 04:32:50;;;;;;;4.10;1.70;;;1.60;99.90;;;;;;5086696;28;20513;-68
2023/03/27 04:35:17;;;;;;;2.60;1.37;;;1.60;99.90;;;;;;5090019;28;20819;-68
2023/03/27 04:37:43;;;;;;;5.80;2.03;;;1.60;99.90;;;;;;5097963;28;20410;-68
2023/03/27 04:40:12;;;;;;;12.50;1.87;;;1.60;99.90;;;;;;5103458;28;20547;-68
2023/03/27 04:42:42;;;;;;;2.90;1.63;;;1.50;99.90;;;;;;5100458;28;20465;-68
2023/03/27 04:45:16;;;;;;;4.33;1.73;;;1.50;99.90;;;;;;5101122;28;20513;-68
2023/03/27 04:47:43;;;;;;;6.00;1.40;;;1.50;99.90;;;;;;5093382;28;20918;-68
2023/03/27 04:50:10;;;;;;;5.03;1.90;;;1.50;99.90;;;;;;5098735;28;20467;-68
2023/03/27 04:52:36;;;;;;;3.50;1.53;;;1.40;99.90;;;;;;5097672;28;20897;-68
2023/03/27 04:55:03;;;;;;;6.50;1.57;;;1.30;99.90;;;;;;5097653;28;20513;-68
2023/03/27 04:57:30;;;;;;;4.93;1.63;;;1.20;99.90;;;;;;5102134;28;20437;-68
2023/03/27 05:00:00;;;;;;;3.93;1.30;;;1.10;99.90;;;;;;5096344;28;20446;-68
2023/03/27 05:02:26;;;;;;;5.67;2.20;;;1.00;99.90;;;;;;5085506;28;20853;-68
2023/03/27 05:04:57;;;;;;;7.60;1.73;;;1.00;99.90;;;;;;5093960;28;20430;-68
2023/03/27 05:07:24;;;;;;;7.97;1.70;;;1.00;99.90;;;;;;5103196;28;20920;-68
2023/03/27 05:09:50;;;;;;;5.23;1.53;;;0.90;99.90;;;;;;5098610;28;20542;-68
2023/03/27 05:12:16;;;;;;;2.60;1.40;;;0.90;99.90;;;;;;5099275;28;20519;-68
2023/03/27 05:14:41;;;;;;;6.83;2.00;;;0.90;99.90;;;;;;5098608;28;20176;-68
2023/03/27 05:17:08;;;;;;;6.03;1.53;;;0.90;99.90;;;;;;5103784;28;20194;-68
2023/03/27 05:19:34;;;;;;;4.13;1.43;;;0.80;99.90;;;;;;5098806;28;20179;-68
2023/03/27 05:21:59;;;;;;;3.60;1.13;;;0.90;99.90;;;;;;5104513;28;20456;-68
2023/03/27 05:24:26;;;;;;;5.47;1.73;;;0.90;99.90;;;;;;5096776;28;20177;-68
2023/03/27 05:26:52;;;;;;;6.50;1.20;;;0.80;99.90;;;;;;5101019;28;20174;-68
2023/03/27 05:29:17;;;;;;;6.83;1.13;;;0.80;99.90;;;;;;5098036;28;20774;-68
2023/03/27 05:31:43;;;;;;;7.23;2.23;;;0.90;99.90;;;;;;5101592;28;20715;-68
2023/03/27 05:34:10;;;;;;;3.80;1.97;;;0.80;99.90;;;;;;5098929;28;20192;-68
2023/03/27 05:36:35;;;;;;;2.50;1.43;;;0.80;99.90;;;;;;5102073;28;20443;-68
2023/03/27 05:39:01;;;;;;;4.90;2.17;;;0.80;99.90;;;;;;5095305;28;20836;-68
2023/03/27 05:41:27;;;;;;;1.70;0.90;;;0.80;99.90;;;;;;5063371;28;1090472;-68
2023/03/27 05:43:52;;;;;;;15.07;1.70;;;0.90;99.90;;;;;;5099912;28;20188;-68
2023/03/27 05:46:19;;;;;;;3.00;1.90;;;0.90;99.90;;;;;;5103174;28;20207;-68
2023/03/27 05:48:45;;;;;;;6.60;1.93;;;0.90;99.90;;;;;;5092745;28;20230;-68
2023/03/27 05:51:11;;;;;;;4.50;1.10;;;0.90;99.90;;;;;;5101145;28;20612;-68
2023/03/27 05:53:39;;;;;;;6.40;1.53;;;0.90;99.90;;;;;;5104008;28;20966;-68
2023/03/27 05:56:05;;;;;;;12.33;1.80;;;0.80;99.90;;;;;;5106552;28;20236;-68
2023/03/27 05:58:31;;;;;;;5.40;1.30;;;0.80;99.90;;;;;;5097045;28;20430;-67
2023/03/27 06:00:57;;;;;;;9.80;2.10;;;0.80;99.90;;;;;;5103861;28;20444;-68
2023/03/27 06:03:23;;;;;;;6.73;1.90;;;0.80;99.90;;;;;;5103797;28;20215;-67
2023/03/27 06:05:49;;;;;;;7.37;1.87;;;0.80;99.90;;;;;;5104622;28;20180;-67
2023/03/27 06:08:15;;;;;;;1.63;0.83;;;0.90;99.90;;;;;;5101417;28;20438;-67
2023/03/27 06:10:42;;;;;;;4.90;1.00;;;0.80;99.90;;;;;;5106251;28;20943;-67
2023/03/27 06:13:12;;;;;;;6.63;1.70;;;0.90;99.90;;;;;;5097551;28;20418;-67
2023/03/27 06:15:40;;;;;;;4.63;1.37;;;0.90;99.90;;;;;;5107489;28;20422;-68
2023/03/27 06:18:07;;;;;;;2.50;1.37;;;0.90;99.90;;;;;;5103355;28;20449;-68
2023/03/27 06:20:34;;;;;;;6.50;1.40;;;0.90;99.90;;;;;;5105133;28;20429;-67
2023/03/27 06:23:00;;;;;;;2.80;1.60;;;1.00;99.90;;;;;;5103716;28;20939;-68
2023/03/27 06:25:30;;;;;;;4.03;1.40;;;1.00;99.90;;;;;;5102251;28;20470;-68
2023/03/27 06:27:57;;;;;;;4.40;1.80;;;1.00;99.90;;;;;;5104227;28;20421;-68
2023/03/27 06:30:24;;;;;;;3.50;1.10;;;1.00;99.90;;;;;;5106639;28;20883;-68
2023/03/27 06:32:52;;;;;;;23.93;3.40;;;1.00;99.90;;;;;;5101761;28;20628;-68
2023/03/27 06:35:19;;;;;;;8.10;1.70;;;1.00;99.90;;;;;;5105209;28;20498;-68
2023/03/27 06:37:47;;;;;;;6.80;1.17;;;1.10;99.90;;;;;;5100242;28;20581;-68
2023/03/27 06:40:23;;;;;;;3.23;1.27;;;1.00;99.90;;;;;;5105956;28;20421;-68
2023/03/27 06:42:54;;;;;;;9.57;2.13;;;1.10;99.90;;;;;;5092600;28;20965;-67
2023/03/27 06:45:22;;;;;;;5.03;1.83;;;1.10;99.90;;;;;;5103971;28;20416;-69
2023/03/27 06:47:53;;;;;;;5.00;2.10;;;1.10;99.90;;;;;;5099339;28;20440;-67
2023/03/27 06:50:19;;;;;;;2.93;1.40;;;1.10;99.90;;;;;;5100787;28;20549;-67
2023/03/27 06:52:47;;;;;;;8.27;1.93;;;1.20;99.90;;;;;;5101789;28;20421;-68
2023/03/27 06:55:13;;;;;;;22.70;2.30;;;1.30;99.90;;;;;;5103127;28;20427;-67
2023/03/27 06:57:46;;;;;;;3.60;1.00;;;1.30;99.90;;;;;;5104221;28;20457;-67
2023/03/27 07:00:21;;;;;;;3.43;1.00;;;1.40;99.90;;;;;;5098375;28;20434;-68
2023/03/27 07:02:48;;;;;;;3.30;1.67;;;1.50;99.90;;;;;;5102758;27;20457;-68
2023/03/27 07:05:15;;;;;;;2.07;0.97;;;1.50;99.90;;;;;;5107056;28;20456;-68
2023/03/27 07:07:41;;;;;;;3.67;1.03;;;1.50;99.90;;;;;;5104286;28;20985;-68
2023/03/27 07:10:09;;;;;;;3.77;1.47;;;1.50;99.90;;;;;;5102639;28;20464;-68
2023/03/27 07:12:35;;;;;;;6.97;1.70;;;1.50;99.90;;;;;;5100684;28;20870;-68
2023/03/27 07:15:01;;;;;;;14.20;2.33;;;1.50;99.90;;;;;;5100820;28;20422;-67
2023/03/27 07:17:26;;;;;;;7.23;1.67;;;1.60;99.90;;;;;;5106070;28;20471;-67
2023/03/27 07:19:52;;;;;;;3.23;1.07;;;1.70;99.90;;;;;;5101422;28;20180;-67
2023/03/27 07:22:18;;;;;;;3.20;0.90;;;2.00;99.90;;;;;;5106059;28;20418;-68
2023/03/27 07:24:44;;;;;;;4.73;1.50;;;2.50;99.90;;;;;;5099199;28;20507;-67
2023/03/27 07:27:10;;;;;;;8.33;1.03;;;2.90;99.90;;;;;;5100018;28;20177;-66
2023/03/27 07:29:36;;;;;;;21.37;1.70;;;3.20;99.90;;;;;;5094005;28;20250;-69
2023/03/27 07:32:03;;;;;;;8.90;1.33;;;3.00;99.90;;;;;;5099652;28;20422;-67
2023/03/27 07:34:29;;;;;;;8.43;1.27;;;3.00;99.90;;;;;;5095522;28;20440;-68
2023/03/27 07:36:56;;;;;;;3.93;1.07;;;2.90;99.90;;;;;;5101180;28;20409;-68
2023/03/27 07:39:22;;;;;;;3.77;0.90;;;2.80;99.90;;;;;;5097003;28;20628;-68
2023/03/27 07:41:48;;;;;;;4.97;0.80;;;2.80;99.90;;;;;;5102272;28;20437;-67
2023/03/27 07:44:13;;;;;;;3.00;1.27;;;2.80;99.90;;;;;;5100741;28;20418;-68
2023/03/27 07:46:40;;;;;;;5.60;1.13;;;2.70;99.90;;;;;;5102427;28;20692;-68
2023/03/27 07:49:07;;;;;;;2.13;0.80;;;2.70;99.90;;;;;;5093101;28;20263;-67
2023/03/27 07:51:33;;;;;;;5.83;1.37;;;2.70;99.90;;;;;;5099162;28;20409;-67
2023/03/27 07:54:03;;;;;;;14.50;1.30;;;2.80;99.90;;;;;;5102440;28;20472;-68
2023/03/27 07:56:30;;;;;;;4.03;1.10;;;2.80;99.90;;;;;;5095781;28;20771;-68
2023/03/27 07:58:56;;;;;;;6.07;2.43;;;2.80;99.90;;;;;;5093569;28;20425;-68
2023/03/27 08:01:21;;;;;;;6.23;1.37;;;3.00;99.90;;;;;;5104646;28;20413;-67
2023/03/27 08:03:47;;;;;;;9.93;1.47;;;3.00;99.90;;;;;;5095516;28;20553;-67
2023/03/27 08:06:13;;;;;;;5.27;1.40;;;2.90;99.90;;;;;;5100818;28;20260;-67
2023/03/27 08:08:38;;;;;;;2.40;1.23;;;2.60;99.90;;;;;;5099739;28;20176;-68
2023/03/27 08:11:05;;;;;;;6.83;1.50;;;2.40;99.90;;;;;;5099746;28;20828;-67
2023/03/27 08:13:31;;;;;;;13.77;2.03;;;2.50;99.90;;;;;;5097267;28;20175;-67
2023/03/27 08:16:03;;;;;;;2.20;1.30;;;2.60;99.90;;;;;;5102820;28;20422;-68
2023/03/27 08:18:28;;;;;;;6.27;1.10;;;3.30;99.90;;;;;;5088750;28;20920;-68
2023/03/27 08:20:56;;;;;;;3.10;1.30;;;3.60;98.60;;;;;;5102594;28;20514;-68
2023/03/27 08:23:25;;;;;;;3.97;1.30;;;3.60;98.30;;;;;;5102119;28;20203;-68
2023/03/27 08:25:51;;;;;;;1.93;1.20;;;3.60;99.00;;;;;;5097318;28;20498;-68
2023/03/27 08:28:17;;;;;;;6.00;1.10;;;4.10;97.90;;;;;;5104810;28;20521;-68
2023/03/27 08:30:42;;;;;;;7.83;1.03;;;4.20;97.60;;;;;;5095298;28;20256;-68
2023/03/27 08:33:08;;;;;;;4.33;1.53;;;4.60;97.30;;;;;;5101267;28;20182;-67
2023/03/27 08:35:34;;;;;;;2.77;1.10;;;5.00;95.90;;;;;;5102175;28;20294;-68
2023/03/27 08:38:00;;;;;;;2.33;0.90;;;5.00;95.20;;;;;;5098220;28;20211;-67
2023/03/27 08:40:29;;;;;;;9.50;1.40;;;5.20;94.40;;;;;;5102879;28;20446;-68
2023/03/27 08:43:01;;;;;;;2.50;1.20;;;5.50;94.10;;;;;;5103752;28;20464;-68
2023/03/27 08:45:31;;;;;;;4.30;1.30;;;6.00;93.30;;;;;;5097902;28;20412;-68
2023/03/27 08:48:30;;;;;;;3.60;1.50;;;6.30;92.80;;;;;;5098146;28;20410;-68
2023/03/27 08:51:00;;;;;;;10.17;0.87;;;6.10;92.20;;;;;;5091460;28;20437;-68
2023/03/27 08:53:38;;;;;;;1.67;0.90;;;6.20;91.90;;;;;;5099493;28;20420;-69
2023/03/27 08:56:04;;;;;;;2.90;1.17;;;6.10;91.40;;;;;;5105998;28;20884;-68
2023/03/27 08:58:31;;;;;;;4.03;1.50;;;6.10;90.90;;;;;;5093347;28;20439;-68
2023/03/27 09:01:11;;;;;;;4.27;1.00;;;6.40;91.60;;;;;;5100857;28;20496;-69
2023/03/27 09:04:18;;;;;;;8.23;1.33;;;6.60;90.40;;;;;;5098140;28;20500;-69
2023/03/27 09:07:11;;;;;;;1.50;0.90;;;6.20;90.90;;;;;;5098305;28;20471;-68
2023/03/27 09:09:58;;;;;;;6.33;0.90;;;5.80;91.50;;;;;;5097784;28;20421;-69
2023/03/27 09:12:51;;;;;;;3.73;1.33;;;6.50;91.80;;;;;;5098541;28;20435;-69
2023/03/27 09:15:42;;;;;;;4.70;1.63;;;7.10;88.00;;;;;;5103879;28;20514;-69
2023/03/27 09:18:36;;;;;;;2.60;1.03;;;7.10;87.20;;;;;;5065162;28;20444;-69
2023/03/27 09:21:26;;;;;;;6.00;1.30;;;7.10;86.90;;;;;;5099997;28;20421;-69
2023/03/27 09:23:55;;;;;;;3.40;1.27;;;7.30;89.30;;;;;;5099986;28;20969;-69
2023/03/27 09:26:26;;;;;;;3.47;1.13;;;7.50;85.80;;;;;;5097100;28;21067;-68
2023/03/27 09:29:06;;;;;;;2.47;1.33;;;7.90;85.10;;;;;;5101187;28;20853;-68
2023/03/27 09:31:33;;;;;;;3.13;1.43;;;7.30;85.00;;;;;;5088158;28;20417;-68
2023/03/27 09:34:05;;;;;;;3.70;1.50;;;6.50;85.50;;;;;;5097429;28;21133;-68
2023/03/27 09:36:34;;;;;;;6.77;1.57;;;5.70;88.00;;;;;;5091459;28;20417;-68
2023/03/27 09:39:11;;;;;;;10.63;1.50;;;5.60;88.40;;;;;;5093065;28;20493;-68
2023/03/27 09:41:48;;;;;;;2.90;1.33;;;5.70;89.40;;;;;;5102810;28;20505;-68
2023/03/27 09:44:25;;;;;;;2.90;1.17;;;5.60;89.40;;;;;;5092448;28;20467;-68
2023/03/27 09:46:57;;;;;;;17.10;1.83;;;5.50;89.60;;;;;;5099416;28;20967;-68
2023/03/27 09:49:24;;;;;;;7.47;1.37;;;5.20;90.40;;;;;;5094821;28;20410;-68
2023/03/27 09:51:55;;;;;;;10.43;0.93;;;4.80;90.50;;;;;;5094848;28;20542;-68
2023/03/27 09:54:30;;;;;;;2.80;1.10;;;4.60;91.00;;;;;;5104068;28;20440;-68
2023/03/27 09:57:05;;;;;;;4.10;0.80;;;5.00;91.50;;;;;;5096904;28;20806;-68
2023/03/27 09:59:37;;;;;;;1.97;0.70;;;5.10;89.80;;;;;;5088280;28;20580;-68
2023/03/27 10:02:25;;;;;;;3.23;0.80;;;5.20;90.00;;;;;;5098335;28;20464;-68
2023/03/27 10:05:18;;;;;;;4.30;1.03;;;5.30;89.20;;;;;;5100082;28;20851;-69
2023/03/27 10:07:44;;;;;;;8.43;0.93;;;5.30;89.40;;;;;;5091509;28;20426;-68
2023/03/27 10:10:16;;;;;;;2.80;0.97;;;4.90;89.80;;;;;;5100169;28;20417;-68
2023/03/27 10:12:42;;;;;;;3.47;0.70;;;4.80;89.80;;;;;;5097310;28;20176;-68
2023/03/27 10:15:35;;;;;;;2.37;0.80;;;4.90;90.20;;;;;;5099700;28;20429;-69
2023/03/27 10:18:23;;;;;;;3.03;1.10;;;5.20;89.40;;;;;;5098228;28;20445;-68
2023/03/27 10:20:54;;;;;;;6.40;1.03;;;5.40;89.30;;;;;;5101863;28;20462;-68
2023/03/27 10:23:38;;;;;;;6.27;1.47;;;5.70;89.50;;;;;;5099825;28;20841;-68
2023/03/27 10:26:09;;;;;;;2.90;1.00;;;5.70;87.30;;;;;;5093021;28;20845;-68
2023/03/27 10:28:37;;;;;;;4.20;1.10;;;5.60;81.40;;;;;;5084228;28;20434;-68
2023/03/27 10:31:23;;;;;;;2.07;0.83;;;5.30;79.70;;;;;;5084094;28;20480;-68
2023/03/27 10:33:48;;;;;;;3.37;1.10;;;5.30;80.80;;;;;;5086647;28;20433;-68
2023/03/27 10:36:16;;;;;;;2.03;1.10;;;5.50;86.40;;;;;;5089884;28;20414;-68
2023/03/27 10:38:42;;;;;;;4.57;1.90;;;5.80;86.30;;;;;;5095258;28;20335;-68
2023/03/27 10:41:16;;;;;;;12.97;1.53;;;6.00;88.30;;;;;;5104533;28;20423;-68
2023/03/27 10:43:44;;;;;;;2.27;0.70;;;5.70;82.10;;;;;;5102240;28;20898;-68
2023/03/27 10:46:23;;;;;;;2.63;1.03;;;5.50;84.00;;;;;;5103499;28;20648;-68
2023/03/27 10:49:09;;;;;;;3.27;0.90;;;5.20;83.00;;;;;;5094178;28;20512;-68
2023/03/27 10:51:47;;;;;;;1.30;0.57;;;5.00;80.20;;;;;;5091158;28;20419;-68
2023/03/27 10:54:28;;;;;;;2.47;1.37;;;5.20;81.10;;;;;;5104361;28;20490;-68
2023/03/27 10:57:16;;;;;;;2.43;0.97;;;5.30;80.90;;;;;;5100220;28;20517;-68
2023/03/27 10:59:45;;;;;;;3.63;1.40;;;5.50;81.90;;;;;;5092591;28;20509;-68
2023/03/27 11:02:16;;;;;;;1.20;0.50;;;5.90;83.30;;;;;;5105289;28;20934;-68
2023/03/27 11:04:47;;;;;;;1.83;0.70;;;6.10;78.90;;;;;;5096185;28;20502;-68
2023/03/27 11:07:41;;;;;;;1.10;0.50;;;5.80;77.00;;;;;;5103415;28;20430;-70
2023/03/27 11:10:36;;;;;;;4.50;1.17;;;5.60;78.10;;;;;;5100936;28;20460;-69
2023/03/27 11:13:26;;;;;;;2.30;1.00;;;5.60;80.40;;;;;;5095768;28;20441;-69
2023/03/27 11:16:06;;;;;;;1.20;0.53;;;5.60;82.10;;;;;;5103799;28;20414;-69
2023/03/27 11:18:37;;;;;;;2.03;1.00;;;5.50;77.70;;;;;;5090528;28;20837;-69
2023/03/27 11:21:38;;;;;;;1.57;0.77;;;5.60;77.90;;;;;;5101451;28;20409;-69
2023/03/27 11:24:11;;;;;;;4.40;1.00;;;6.00;75.90;;;;;;5086331;28;20550;-69
2023/03/27 11:26:44;;;;;;;5.23;1.23;;;6.20;76.30;;;;;;5093555;28;20528;-69
2023/03/27 11:29:27;;;;;;;3.17;1.10;;;6.30;76.00;;;;;;5102130;28;20422;-69
2023/03/27 11:31:55;;;;;;;1.10;0.50;;;6.30;76.40;;;;;;5095363;28;20750;-69
2023/03/27 11:34:59;;;;;;;1.30;0.70;;;6.30;76.60;;;;;;5100440;28;20460;-68
2023/03/27 11:37:52;;;;;;;3.87;0.97;;;6.50;77.70;;;;;;5088346;28;20427;-68
2023/03/27 11:40:25;;;;;;;2.73;0.80;;;6.20;78.50;;;;;;5105332;28;20487;-68
2023/03/27 11:42:51;;;;;;;3.53;1.23;;;5.90;73.10;;;;;;5098778;28;20484;-68
2023/03/27 11:45:22;;;;;;;5.90;1.10;;;5.60;75.20;;;;;;5101643;28;20415;-68
2023/03/27 11:48:20;;;;;;;4.20;1.23;;;5.30;76.00;;;;;;5097178;28;20700;-68
2023/03/27 11:50:54;;;;;;;3.57;1.03;;;5.60;78.60;;;;;;5097564;28;20421;-68
2023/03/27 11:54:00;;;;;;;1.83;1.00;;;5.80;79.10;;;;;;5103892;28;20532;-69
2023/03/27 11:56:42;;;;;;;3.00;0.90;;;5.80;78.00;;;;;;5095974;28;20922;-68
2023/03/27 11:59:27;;;;;;;2.87;0.87;;;5.60;81.50;;;;;;5099510;28;20426;-69
2023/03/27 12:02:27;;;;;;;3.47;0.73;;;5.40;79.20;;;;;;5096743;28;20422;-69
2023/03/27 12:05:23;;;;;;;4.20;0.70;;;5.30;82.30;;;;;;5092732;28;20414;-69
2023/03/27 12:08:01;;;;;;;12.17;1.70;;;5.80;78.40;;;;;;5094440;28;20871;-69
2023/03/27 12:10:34;;;;;;;2.23;0.73;;;6.20;75.40;;;;;;5088137;28;20405;-68
2023/03/27 12:13:04;;;;;;;5.67;1.13;;;6.30;77.40;;;;;;5095139;28;20472;-69
2023/03/27 12:15:50;;;;;;;1.60;0.80;;;6.40;79.50;;;;;;5105839;28;20443;-69
2023/03/27 12:18:56;;;;;;;3.07;1.33;;;6.20;78.70;;;;;;5093321;28;20442;-69
2023/03/27 12:21:52;;;;;;;1.30;0.70;;;5.90;74.80;;;;;;5100251;28;20912;-68
2023/03/27 12:24:18;;;;;;;7.47;0.90;;;6.10;75.20;;;;;;5099634;28;20425;-68
2023/03/27 12:27:12;;;;;;;3.20;0.97;;;6.70;73.40;;;;;;5099891;28;20766;-68
2023/03/27 12:29:43;;;;;;;2.33;1.30;;;6.70;73.00;;;;;;5093896;28;20289;-68
2023/03/27 12:32:46;;;;;;;2.07;0.93;;;6.80;72.30;;;;;;5100376;28;20510;-69
2023/03/27 12:35:19;;;;;;;9.50;1.53;;;6.60;72.80;;;;;;5102249;28;20405;-68
2023/03/27 12:38:00;;;;;;;1.73;0.60;;;6.30;70.70;;;;;;5098085;28;20410;-68
2023/03/27 12:40:57;;;;;;;2.87;1.03;;;6.10;74.80;;;;;;5100179;28;20409;-68
2023/03/27 12:43:32;;;;;;;2.00;0.70;;;5.90;74.60;;;;;;5103066;28;20810;-69
2023/03/27 12:46:10;;;;;;;8.20;1.27;;;5.80;76.50;;;;;;5099776;28;20414;-69
2023/03/27 12:48:54;;;;;;;2.13;0.63;;;5.70;79.30;;;;;;5090324;28;20517;-68
2023/03/27 12:51:50;;;;;;;4.40;1.17;;;5.50;83.30;;;;;;5100913;28;20414;-69
2023/03/27 12:54:19;;;;;;;4.70;0.90;;;5.30;85.50;;;;;;5084956;28;20926;-69
2023/03/27 12:57:20;;;;;;;5.37;0.90;;;5.40;85.40;;;;;;5096686;28;20413;-68
2023/03/27 12:59:45;;;;;;;1.47;0.87;;;5.70;89.60;;;;;;5090866;28;20440;-68
2023/03/27 13:02:14;;;;;;;1.60;0.50;;;6.10;86.60;;;;;;5103490;28;20453;-68
2023/03/27 13:05:00;;;;;;;4.50;0.83;;;6.50;82.50;;;;;;5095833;28;20179;-68
2023/03/27 13:07:31;;;;;;;3.23;1.03;;;6.80;81.80;;;;;;5090179;28;20417;-68
2023/03/27 13:10:15;;;;;;;1.53;0.67;;;7.00;81.90;;;;;;5096554;28;20434;-68
2023/03/27 13:12:55;;;;;;;1.30;0.63;;;7.00;80.70;;;;;;5089870;28;20410;-68
2023/03/27 13:16:15;;;;;;;4.23;0.73;;;7.30;82.60;;;;;;5104613;28;20413;-68
2023/03/27 13:18:46;;;;;;;2.90;1.07;;;7.90;77.00;;;;;;5028821;28;20948;-68
2023/03/27 13:21:17;;;;;;;1.47;0.60;;;8.20;77.60;;;;;;5089934;28;20449;-69
2023/03/27 13:24:10;;;;;;;6.20;1.00;;;8.20;79.10;;;;;;5102083;28;20508;-68
2023/03/27 13:26:55;;;;;;;2.10;0.83;;;8.00;82.00;;;;;;5091684;28;20401;-68